Time,TemperatureF,DewpointF,PressureIn,WindDirection,WindDirectionDegrees,WindSpeedMPH,WindSpeedGustMPH,Humidity,HourlyPrecipIn,Conditions,Clouds,dailyrainin,SoftwareType,DateUTC
2017-04-27 00:02:00,43.2,42.4,29.71,South,188,2.7,2.7,97,0.00,,---,0.00,VWS V15.00,2017-04-27 04:02:00,
2017-04-27 00:07:00,43.2,42.4,29.71,SSW,205,0.0,0.0,97,0.00,,---,0.00,VWS V15.00,2017-04-27 04:07:00,
2017-04-27 00:12:00,43.2,42.4,29.71,South,182,3.1,3.6,97,0.00,,---,0.00,VWS V15.00,2017-04-27 04:12:00,
2017-04-27 00:17:00,43.2,42.4,29.71,South,182,0.0,0.0,97,0.00,,---,0.00,VWS V15.00,2017-04-27 04:17:00,
2017-04-27 00:22:00,43.2,42.4,29.71,South,182,0.0,0.0,97,0.00,,---,0.00,VWS V15.00,2017-04-27 04:22:00,
2017-04-27 00:27:00,43.2,42.4,29.71,South,182,0.0,0.0,97,0.00,,---,0.00,VWS V15.00,2017-04-27 04:27:00,
2017-04-27 00:32:00,43.2,42.4,29.71,South,182,0.0,0.0,97,0.00,,---,0.00,VWS V15.00,2017-04-27 04:32:00,
2017-04-27 00:37:00,43.2,42.4,29.74,South,182,0.0,0.0,97,0.00,,---,0.00,VWS V15.00,2017-04-27 04:37:00,
2017-04-27 00:42:00,43.2,42.4,29.74,South,182,0.0,0.0,97,0.00,,---,0.00,VWS V15.00,2017-04-27 04:42:00,
2017-04-27 00:47:00,43.2,42.4,29.74,South,182,0.0,0.0,97,0.00,,---,0.00,VWS V15.00,2017-04-27 04:47:00,
2017-04-27 00:52:00,43.2,42.4,29.71,South,182,0.0,0.0,97,0.00,,---,0.00,VWS V15.00,2017-04-27 04:52:00,
2017-04-27 00:57:00,43.2,42.4,29.71,South,182,0.0,0.0,97,0.00,,---,0.00,VWS V15.00,2017-04-27 04:57:00,
2017-04-27 01:02:00,43.2,42.4,29.71,South,182,0.0,0.0,97,0.00,,---,0.00,VWS V15.00,2017-04-27 05:02:00,
2017-04-27 01:07:00,43.2,42.4,29.71,South,182,0.0,0.0,97,0.00,,---,0.00,VWS V15.00,2017-04-27 05:07:00,
2017-04-27 01:12:00,43.2,42.4,29.71,South,182,0.0,0.0,97,0.00,,---,0.00,VWS V15.00,2017-04-27 05:12:00,
2017-04-27 01:17:00,43.2,42.4,29.71,South,182,0.0,0.0,97,0.00,,---,0.00,VWS V15.00,2017-04-27 05:17:00,
2017-04-27 01:22:00,43.2,42.4,29.71,South,183,0.0,0.0,97,0.00,,---,0.00,VWS V15.00,2017-04-27 05:22:00,
2017-04-27 01:27:00,43.2,42.4,29.71,South,182,0.0,0.0,97,0.00,,---,0.00,VWS V15.00,2017-04-27 05:27:00,
2017-04-27 01:32:00,43.2,42.4,29.71,South,182,0.0,0.0,97,0.00,,---,0.00,VWS V15.00,2017-04-27 05:32:00,
2017-04-27 01:37:00,43.2,42.4,29.71,South,182,0.0,0.0,97,0.00,,---,0.00,VWS V15.00,2017-04-27 05:37:00,
2017-04-27 01:42:00,43.2,42.4,29.71,South,182,2.7,2.7,97,0.00,,---,0.00,VWS V15.00,2017-04-27 05:42:00,
2017-04-27 01:47:00,43.2,42.4,29.71,South,183,0.0,3.1,97,0.00,,---,0.00,VWS V15.00,2017-04-27 05:47:00,
2017-04-27 01:52:00,43.2,42.4,29.71,South,182,2.7,3.1,97,0.00,,---,0.00,VWS V15.00,2017-04-27 05:52:00,
2017-04-27 01:56:00,43.2,42.4,29.71,South,182,0.0,0.0,97,0.00,,---,0.00,VWS V15.00,2017-04-27 05:56:00,
2017-04-27 02:01:00,43.2,42.4,29.71,South,182,3.6,4.0,97,0.00,,---,0.00,VWS V15.00,2017-04-27 06:01:00,
2017-04-27 02:06:00,43.2,42.4,29.71,South,182,2.7,2.7,97,0.00,,---,0.00,VWS V15.00,2017-04-27 06:06:00,
2017-04-27 02:11:00,43.2,42.4,29.71,South,182,4.0,4.0,97,0.00,,---,0.00,VWS V15.00,2017-04-27 06:11:00,